Impacts TAF Board
For situational awareness. Not to be used for flight planning purposes.
IDs:

KLFK - Lufkin/Angelina Cnty, TX, US

Issued at 0540 UTC 18 Sep 2021
Updated at 0831 UTC 18 Sep 2021
Potential Impact None Slight Moderate High
Time0753Z 18/09Z 18/10Z 18/11Z 18/12Z 18/13Z 18/14Z 18/15Z 18/16Z 18/17Z 18/18Z 18/19Z 18/20Z 18/21Z>>
Type OBS PRVL PRVL PRVL PRVL PRVL PRVL PRVL PRVL PRVL PRVL PRVL PRVL PRVL
VIS 10 >6 >6 5 5 5 5 5 >6 >6 >6 >6 >6 >6
CIG -- 15 15 12 12 7 7 7 15 15 25 25 35 35
Cover SCT BKN BKN OVC OVC OVC OVC OVC OVC OVC BKN BKN BKN BKN
FltCat VFR MVFR MVFR MVFR MVFR IFR IFR IFR MVFR MVFR MVFR MVFR VFR VFR
WX -- -- -- BR BR BR BR BR -- -- VCTS VCTS VCTS VCTS
WDir VRB VRB VRB VRB VRB VRB VRB VRB VRB VRB 10 10 30 30
WSpd 0 0 0 0 0 0 0 0 4 4 4 4 5 5
WGst -- -- -- -- -- -- -- -- -- -- -- -- -- --
Raw TAF
KLFK 180540Z 1806/1906 00000KT P6SM SKC
  FM180900 00000KT P6SM BKN015
  FM181100 00000KT 5SM BR SCT007 OVC012
  FM181300 00000KT 5SM BR OVC007
  FM181600 VRB04KT P6SM OVC015
  FM181800 01004KT P6SM VCTS BKN025CB
  FM182000 03005KT P6SM VCTS SCT030 BKN035CB


Raw METAR
KLFK 180753Z AUTO 00000KT 10SM SCT085 24/22 A3000 RMK AO2 SLP154 T02390222
KLFK 180653Z AUTO 00000KT 10SM OVC075 23/22 A3001 RMK AO2 SLP156 T02330222
KLFK 180553Z AUTO 00000KT 10SM SCT080 23/22 A3000 RMK AO2 SLP152 T02330222 10300 20233 403330222 53004

METAR Board
Radar Display
Forecast Discussion
For situational awareness. Not to be used for flight planning purposes.